sensor_id;sensor_type;location;lat;lon;timestamp;P1;durP1;ratioP1;P2;durP2;ratioP2
29380;SDS011;16364;52.490;13.326;2024-02-15T00:01:15;8.47;;;6.83;;
29380;SDS011;16364;52.490;13.326;2024-02-15T00:03:40;7.37;;;6.67;;
29380;SDS011;16364;52.490;13.326;2024-02-15T00:06:06;8.67;;;6.67;;
29380;SDS011;16364;52.490;13.326;2024-02-15T00:08:31;8.50;;;6.60;;
29380;SDS011;16364;52.490;13.326;2024-02-15T00:10:58;5.93;;;5.43;;
29380;SDS011;16364;52.490;13.326;2024-02-15T00:13:23;7.43;;;5.70;;
29380;SDS011;16364;52.490;13.326;2024-02-15T00:15:48;8.93;;;5.80;;
29380;SDS011;16364;52.490;13.326;2024-02-15T00:18:15;8.03;;;7.17;;
29380;SDS011;16364;52.490;13.326;2024-02-15T00:20:40;7.80;;;7.00;;
29380;SDS011;16364;52.490;13.326;2024-02-15T00:23:05;9.13;;;7.07;;
29380;SDS011;16364;52.490;13.326;2024-02-15T00:25:31;8.60;;;7.50;;
29380;SDS011;16364;52.490;13.326;2024-02-15T00:27:56;9.03;;;7.40;;
29380;SDS011;16364;52.490;13.326;2024-02-15T00:30:22;7.33;;;6.70;;
29380;SDS011;16364;52.490;13.326;2024-02-15T00:32:47;7.57;;;6.83;;
29380;SDS011;16364;52.490;13.326;2024-02-15T00:35:12;10.23;;;6.97;;
29380;SDS011;16364;52.490;13.326;2024-02-15T00:37:38;8.87;;;7.87;;
29380;SDS011;16364;52.490;13.326;2024-02-15T00:40:05;6.97;;;6.23;;
29380;SDS011;16364;52.490;13.326;2024-02-15T00:42:30;9.40;;;7.97;;
29380;SDS011;16364;52.490;13.326;2024-02-15T00:44:59;11.00;;;6.97;;
29380;SDS011;16364;52.490;13.326;2024-02-15T00:47:24;8.57;;;7.70;;
29380;SDS011;16364;52.490;13.326;2024-02-15T00:49:49;7.93;;;7.13;;
29380;SDS011;16364;52.490;13.326;2024-02-15T00:52:15;7.77;;;7.07;;
29380;SDS011;16364;52.490;13.326;2024-02-15T00:54:40;10.53;;;8.10;;
29380;SDS011;16364;52.490;13.326;2024-02-15T00:57:06;8.80;;;7.40;;
29380;SDS011;16364;52.490;13.326;2024-02-15T00:59:31;8.47;;;7.60;;
29380;SDS011;16364;52.490;13.326;2024-02-15T01:02:00;11.03;;;8.40;;
29380;SDS011;16364;52.490;13.326;2024-02-15T01:04:27;13.73;;;8.70;;
29380;SDS011;16364;52.490;13.326;2024-02-15T01:06:52;10.03;;;8.10;;
29380;SDS011;16364;52.490;13.326;2024-02-15T01:09:18;10.30;;;8.90;;
29380;SDS011;16364;52.490;13.326;2024-02-15T01:11:43;10.97;;;9.67;;
29380;SDS011;16364;52.490;13.326;2024-02-15T01:14:08;12.10;;;9.60;;
29380;SDS011;16364;52.490;13.326;2024-02-15T01:16:34;10.97;;;9.77;;
29380;SDS011;16364;52.490;13.326;2024-02-15T01:19:01;12.80;;;10.53;;
29380;SDS011;16364;52.490;13.326;2024-02-15T01:21:26;11.97;;;10.07;;
29380;SDS011;16364;52.490;13.326;2024-02-15T01:23:51;16.33;;;9.83;;
29380;SDS011;16364;52.490;13.326;2024-02-15T01:26:18;15.03;;;10.60;;
29380;SDS011;16364;52.490;13.326;2024-02-15T01:28:43;12.67;;;10.97;;
29380;SDS011;16364;52.490;13.326;2024-02-15T01:31:10;15.00;;;10.97;;
29380;SDS011;16364;52.490;13.326;2024-02-15T01:33:36;13.00;;;11.20;;
29380;SDS011;16364;52.490;13.326;2024-02-15T01:36:01;11.43;;;10.07;;
29380;SDS011;16364;52.490;13.326;2024-02-15T01:38:27;18.10;;;12.03;;
29380;SDS011;16364;52.490;13.326;2024-02-15T01:40:52;12.13;;;10.53;;
29380;SDS011;16364;52.490;13.326;2024-02-15T01:43:17;19.43;;;10.87;;
29380;SDS011;16364;52.490;13.326;2024-02-15T01:45:42;14.17;;;10.67;;
29380;SDS011;16364;52.490;13.326;2024-02-15T01:48:08;14.53;;;11.50;;
29380;SDS011;16364;52.490;13.326;2024-02-15T01:50:33;15.83;;;10.90;;
29380;SDS011;16364;52.490;13.326;2024-02-15T01:52:59;18.93;;;10.20;;
29380;SDS011;16364;52.490;13.326;2024-02-15T01:55:24;16.30;;;10.63;;
29380;SDS011;16364;52.490;13.326;2024-02-15T01:57:49;13.43;;;11.10;;
29380;SDS011;16364;52.490;13.326;2024-02-15T02:00:15;13.80;;;11.10;;
29380;SDS011;16364;52.490;13.326;2024-02-15T02:02:42;13.60;;;10.50;;
29380;SDS011;16364;52.490;13.326;2024-02-15T02:05:09;17.30;;;11.67;;
29380;SDS011;16364;52.490;13.326;2024-02-15T02:07:34;13.07;;;11.60;;
29380;SDS011;16364;52.490;13.326;2024-02-15T02:10:00;13.70;;;11.43;;
29380;SDS011;16364;52.490;13.326;2024-02-15T02:12:26;15.30;;;11.57;;
29380;SDS011;16364;52.490;13.326;2024-02-15T02:14:55;22.50;;;13.40;;
29380;SDS011;16364;52.490;13.326;2024-02-15T02:17:20;14.97;;;11.73;;
29380;SDS011;16364;52.490;13.326;2024-02-15T02:19:46;16.97;;;12.30;;
29380;SDS011;16364;52.490;13.326;2024-02-15T02:22:11;16.63;;;11.77;;
29380;SDS011;16364;52.490;13.326;2024-02-15T02:27:21;19.67;;;12.30;;
29380;SDS011;16364;52.490;13.326;2024-02-15T02:29:46;15.50;;;11.80;;
29380;SDS011;16364;52.490;13.326;2024-02-15T02:32:11;15.20;;;11.77;;
29380;SDS011;16364;52.490;13.326;2024-02-15T02:34:37;16.63;;;12.73;;
29380;SDS011;16364;52.490;13.326;2024-02-15T02:37:02;18.57;;;13.10;;
29380;SDS011;16364;52.490;13.326;2024-02-15T02:39:30;18.03;;;12.83;;
29380;SDS011;16364;52.490;13.326;2024-02-15T02:41:56;18.97;;;12.53;;
29380;SDS011;16364;52.490;13.326;2024-02-15T02:44:22;14.23;;;10.83;;
29380;SDS011;16364;52.490;13.326;2024-02-15T02:46:47;17.83;;;12.50;;
29380;SDS011;16364;52.490;13.326;2024-02-15T02:49:12;16.83;;;12.80;;
29380;SDS011;16364;52.490;13.326;2024-02-15T02:51:37;15.47;;;11.47;;
29380;SDS011;16364;52.490;13.326;2024-02-15T02:54:03;20.57;;;13.50;;
29380;SDS011;16364;52.490;13.326;2024-02-15T02:56:31;19.23;;;12.90;;
29380;SDS011;16364;52.490;13.326;2024-02-15T02:58:57;19.80;;;12.60;;
29380;SDS011;16364;52.490;13.326;2024-02-15T03:01:22;18.00;;;12.80;;
29380;SDS011;16364;52.490;13.326;2024-02-15T03:03:50;14.50;;;10.73;;
29380;SDS011;16364;52.490;13.326;2024-02-15T03:06:15;16.23;;;11.83;;
29380;SDS011;16364;52.490;13.326;2024-02-15T03:08:40;16.97;;;11.33;;
29380;SDS011;16364;52.490;13.326;2024-02-15T03:11:05;17.53;;;12.53;;
29380;SDS011;16364;52.490;13.326;2024-02-15T03:13:31;14.77;;;11.67;;
29380;SDS011;16364;52.490;13.326;2024-02-15T03:15:56;18.77;;;11.93;;
29380;SDS011;16364;52.490;13.326;2024-02-15T03:18:21;17.07;;;12.07;;
29380;SDS011;16364;52.490;13.326;2024-02-15T03:20:48;16.87;;;11.30;;
29380;SDS011;16364;52.490;13.326;2024-02-15T03:23:14;17.70;;;12.27;;
29380;SDS011;16364;52.490;13.326;2024-02-15T03:25:39;16.93;;;12.27;;
29380;SDS011;16364;52.490;13.326;2024-02-15T03:28:04;16.50;;;12.00;;
29380;SDS011;16364;52.490;13.326;2024-02-15T03:30:30;15.27;;;11.60;;
29380;SDS011;16364;52.490;13.326;2024-02-15T03:32:56;16.47;;;12.83;;
29380;SDS011;16364;52.490;13.326;2024-02-15T03:35:22;17.47;;;11.50;;
29380;SDS011;16364;52.490;13.326;2024-02-15T03:37:48;11.63;;;10.17;;
29380;SDS011;16364;52.490;13.326;2024-02-15T03:40:16;19.30;;;12.53;;
29380;SDS011;16364;52.490;13.326;2024-02-15T03:42:41;17.73;;;11.10;;
29380;SDS011;16364;52.490;13.326;2024-02-15T03:45:06;14.97;;;11.30;;
29380;SDS011;16364;52.490;13.326;2024-02-15T03:47:32;15.73;;;11.87;;
29380;SDS011;16364;52.490;13.326;2024-02-15T03:49:58;24.70;;;13.53;;
29380;SDS011;16364;52.490;13.326;2024-02-15T03:52:23;16.07;;;11.70;;
29380;SDS011;16364;52.490;13.326;2024-02-15T03:54:49;16.67;;;11.10;;
29380;SDS011;16364;52.490;13.326;2024-02-15T03:57:14;20.47;;;12.50;;
29380;SDS011;16364;52.490;13.326;2024-02-15T03:59:41;16.70;;;12.00;;
29380;SDS011;16364;52.490;13.326;2024-02-15T04:02:07;14.83;;;11.03;;
29380;SDS011;16364;52.490;13.326;2024-02-15T04:04:37;18.07;;;11.87;;
29380;SDS011;16364;52.490;13.326;2024-02-15T04:07:02;20.40;;;12.70;;
29380;SDS011;16364;52.490;13.326;2024-02-15T04:09:28;17.43;;;12.07;;
29380;SDS011;16364;52.490;13.326;2024-02-15T04:11:53;16.00;;;11.00;;
29380;SDS011;16364;52.490;13.326;2024-02-15T04:14:19;17.03;;;12.00;;
29380;SDS011;16364;52.490;13.326;2024-02-15T04:16:44;17.23;;;11.53;;
29380;SDS011;16364;52.490;13.326;2024-02-15T04:19:10;19.70;;;10.77;;
29380;SDS011;16364;52.490;13.326;2024-02-15T04:21:35;15.93;;;11.30;;
29380;SDS011;16364;52.490;13.326;2024-02-15T04:24:01;19.57;;;11.70;;
29380;SDS011;16364;52.490;13.326;2024-02-15T04:26:26;18.57;;;13.10;;
29380;SDS011;16364;52.490;13.326;2024-02-15T04:28:54;19.23;;;13.03;;
29380;SDS011;16364;52.490;13.326;2024-02-15T04:31:20;16.60;;;12.07;;
29380;SDS011;16364;52.490;13.326;2024-02-15T04:33:54;19.40;;;12.00;;
29380;SDS011;16364;52.490;13.326;2024-02-15T04:36:20;18.67;;;12.77;;
29380;SDS011;16364;52.490;13.326;2024-02-15T04:38:49;18.27;;;12.00;;
29380;SDS011;16364;52.490;13.326;2024-02-15T04:41:15;21.43;;;12.07;;
29380;SDS011;16364;52.490;13.326;2024-02-15T04:43:44;16.80;;;12.60;;
29380;SDS011;16364;52.490;13.326;2024-02-15T04:46:10;20.50;;;12.93;;
29380;SDS011;16364;52.490;13.326;2024-02-15T04:48:35;20.83;;;12.50;;
29380;SDS011;16364;52.490;13.326;2024-02-15T04:51:02;17.93;;;12.00;;
29380;SDS011;16364;52.490;13.326;2024-02-15T04:53:27;13.50;;;9.37;;
29380;SDS011;16364;52.490;13.326;2024-02-15T04:55:54;17.10;;;10.77;;
29380;SDS011;16364;52.490;13.326;2024-02-15T04:58:20;19.60;;;11.90;;
29380;SDS011;16364;52.490;13.326;2024-02-15T05:00:45;17.60;;;11.50;;
29380;SDS011;16364;52.490;13.326;2024-02-15T05:03:10;16.83;;;11.57;;
29380;SDS011;16364;52.490;13.326;2024-02-15T05:05:35;16.87;;;11.43;;
29380;SDS011;16364;52.490;13.326;2024-02-15T05:08:01;19.10;;;11.57;;
29380;SDS011;16364;52.490;13.326;2024-02-15T05:10:26;19.80;;;12.30;;
29380;SDS011;16364;52.490;13.326;2024-02-15T05:12:52;18.83;;;11.73;;
29380;SDS011;16364;52.490;13.326;2024-02-15T05:15:18;17.40;;;11.10;;
29380;SDS011;16364;52.490;13.326;2024-02-15T05:17:47;18.20;;;11.30;;
29380;SDS011;16364;52.490;13.326;2024-02-15T05:20:13;15.80;;;11.10;;
29380;SDS011;16364;52.490;13.326;2024-02-15T05:22:38;15.37;;;10.40;;
29380;SDS011;16364;52.490;13.326;2024-02-15T05:25:05;17.83;;;11.50;;
29380;SDS011;16364;52.490;13.326;2024-02-15T05:27:31;19.07;;;11.53;;
29380;SDS011;16364;52.490;13.326;2024-02-15T05:29:56;18.73;;;11.90;;
29380;SDS011;16364;52.490;13.326;2024-02-15T05:32:21;15.33;;;10.10;;
29380;SDS011;16364;52.490;13.326;2024-02-15T05:34:47;16.50;;;10.53;;
29380;SDS011;16364;52.490;13.326;2024-02-15T05:37:12;17.03;;;11.47;;
29380;SDS011;16364;52.490;13.326;2024-02-15T05:39:38;16.90;;;10.40;;
29380;SDS011;16364;52.490;13.326;2024-02-15T05:42:04;18.37;;;12.03;;
29380;SDS011;16364;52.490;13.326;2024-02-15T05:44:30;18.43;;;11.50;;
29380;SDS011;16364;52.490;13.326;2024-02-15T05:46:55;17.33;;;11.17;;
29380;SDS011;16364;52.490;13.326;2024-02-15T05:49:21;18.10;;;11.10;;
29380;SDS011;16364;52.490;13.326;2024-02-15T05:51:48;16.67;;;10.20;;
29380;SDS011;16364;52.490;13.326;2024-02-15T05:54:14;18.80;;;11.30;;
29380;SDS011;16364;52.490;13.326;2024-02-15T05:56:39;17.40;;;11.40;;
29380;SDS011;16364;52.490;13.326;2024-02-15T05:59:04;17.03;;;11.33;;
29380;SDS011;16364;52.490;13.326;2024-02-15T06:01:35;15.00;;;9.93;;
29380;SDS011;16364;52.490;13.326;2024-02-15T06:04:00;17.70;;;10.40;;
29380;SDS011;16364;52.490;13.326;2024-02-15T06:06:26;18.43;;;10.73;;
29380;SDS011;16364;52.490;13.326;2024-02-15T06:08:51;13.67;;;9.43;;
29380;SDS011;16364;52.490;13.326;2024-02-15T06:11:19;15.67;;;10.60;;
29380;SDS011;16364;52.490;13.326;2024-02-15T06:13:48;17.77;;;10.87;;
29380;SDS011;16364;52.490;13.326;2024-02-15T06:16:13;14.50;;;10.03;;
29380;SDS011;16364;52.490;13.326;2024-02-15T06:18:38;16.33;;;10.63;;
29380;SDS011;16364;52.490;13.326;2024-02-15T06:21:03;17.80;;;10.40;;
29380;SDS011;16364;52.490;13.326;2024-02-15T06:23:29;17.17;;;11.03;;
29380;SDS011;16364;52.490;13.326;2024-02-15T06:25:55;17.37;;;11.23;;
29380;SDS011;16364;52.490;13.326;2024-02-15T06:28:21;13.73;;;9.87;;
29380;SDS011;16364;52.490;13.326;2024-02-15T06:31:06;16.57;;;11.07;;
29380;SDS011;16364;52.490;13.326;2024-02-15T06:33:50;13.50;;;9.37;;
29380;SDS011;16364;52.490;13.326;2024-02-15T06:36:34;16.43;;;10.20;;
29380;SDS011;16364;52.490;13.326;2024-02-15T06:39:22;12.53;;;8.90;;
29380;SDS011;16364;52.490;13.326;2024-02-15T06:42:03;16.40;;;11.00;;
29380;SDS011;16364;52.490;13.326;2024-02-15T06:44:29;15.77;;;9.50;;
29380;SDS011;16364;52.490;13.326;2024-02-15T06:46:54;13.00;;;10.00;;
29380;SDS011;16364;52.490;13.326;2024-02-15T06:49:20;15.23;;;10.00;;
29380;SDS011;16364;52.490;13.326;2024-02-15T06:51:49;13.67;;;9.40;;
29380;SDS011;16364;52.490;13.326;2024-02-15T06:54:14;18.77;;;10.37;;
29380;SDS011;16364;52.490;13.326;2024-02-15T06:56:39;16.33;;;8.63;;
29380;SDS011;16364;52.490;13.326;2024-02-15T06:59:08;19.80;;;11.30;;
29380;SDS011;16364;52.490;13.326;2024-02-15T07:01:35;13.80;;;9.17;;
29380;SDS011;16364;52.490;13.326;2024-02-15T07:04:00;13.37;;;8.50;;
29380;SDS011;16364;52.490;13.326;2024-02-15T07:06:28;14.07;;;9.87;;
29380;SDS011;16364;52.490;13.326;2024-02-15T07:08:54;15.23;;;10.43;;
29380;SDS011;16364;52.490;13.326;2024-02-15T07:11:21;15.00;;;9.97;;
29380;SDS011;16364;52.490;13.326;2024-02-15T07:13:47;13.10;;;8.97;;
29380;SDS011;16364;52.490;13.326;2024-02-15T07:16:12;12.20;;;9.47;;
29380;SDS011;16364;52.490;13.326;2024-02-15T07:18:40;14.53;;;9.73;;
29380;SDS011;16364;52.490;13.326;2024-02-15T07:21:05;12.97;;;9.27;;
29380;SDS011;16364;52.490;13.326;2024-02-15T07:23:36;13.70;;;8.70;;
29380;SDS011;16364;52.490;13.326;2024-02-15T07:26:01;12.27;;;9.00;;
29380;SDS011;16364;52.490;13.326;2024-02-15T07:28:28;11.70;;;8.67;;
29380;SDS011;16364;52.490;13.326;2024-02-15T07:30:55;12.20;;;8.63;;
29380;SDS011;16364;52.490;13.326;2024-02-15T07:33:21;13.63;;;9.63;;
29380;SDS011;16364;52.490;13.326;2024-02-15T07:35:47;10.50;;;8.20;;
29380;SDS011;16364;52.490;13.326;2024-02-15T07:38:16;15.13;;;10.90;;
29380;SDS011;16364;52.490;13.326;2024-02-15T07:40:41;13.23;;;8.00;;
29380;SDS011;16364;52.490;13.326;2024-02-15T07:43:06;11.83;;;9.43;;
29380;SDS011;16364;52.490;13.326;2024-02-15T07:45:31;12.77;;;9.57;;
29380;SDS011;16364;52.490;13.326;2024-02-15T07:48:00;10.07;;;8.30;;
29380;SDS011;16364;52.490;13.326;2024-02-15T07:50:25;11.90;;;8.30;;
29380;SDS011;16364;52.490;13.326;2024-02-15T07:52:51;14.80;;;8.70;;
29380;SDS011;16364;52.490;13.326;2024-02-15T07:55:16;12.97;;;9.33;;
29380;SDS011;16364;52.490;13.326;2024-02-15T07:57:41;13.63;;;10.53;;
29380;SDS011;16364;52.490;13.326;2024-02-15T08:00:08;10.90;;;8.00;;
29380;SDS011;16364;52.490;13.326;2024-02-15T08:02:36;11.50;;;8.63;;
29380;SDS011;16364;52.490;13.326;2024-02-15T08:05:02;10.60;;;8.97;;
29380;SDS011;16364;52.490;13.326;2024-02-15T08:07:31;11.67;;;8.30;;
29380;SDS011;16364;52.490;13.326;2024-02-15T08:09:58;10.40;;;8.33;;
29380;SDS011;16364;52.490;13.326;2024-02-15T08:12:24;10.37;;;7.90;;
29380;SDS011;16364;52.490;13.326;2024-02-15T08:14:51;11.23;;;8.33;;
29380;SDS011;16364;52.490;13.326;2024-02-15T08:17:16;10.70;;;9.13;;
29380;SDS011;16364;52.490;13.326;2024-02-15T08:19:41;10.47;;;8.77;;
29380;SDS011;16364;52.490;13.326;2024-02-15T08:22:07;8.33;;;7.47;;
29380;SDS011;16364;52.490;13.326;2024-02-15T08:24:32;11.67;;;8.20;;
29380;SDS011;16364;52.490;13.326;2024-02-15T08:26:58;14.10;;;8.20;;
29380;SDS011;16364;52.490;13.326;2024-02-15T08:29:24;10.27;;;8.30;;
29380;SDS011;16364;52.490;13.326;2024-02-15T08:31:49;11.50;;;9.33;;
29380;SDS011;16364;52.490;13.326;2024-02-15T08:34:14;9.60;;;7.43;;
29380;SDS011;16364;52.490;13.326;2024-02-15T08:36:40;15.40;;;8.70;;
29380;SDS011;16364;52.490;13.326;2024-02-15T08:39:05;9.40;;;7.73;;
29380;SDS011;16364;52.490;13.326;2024-02-15T08:41:30;10.73;;;8.43;;
29380;SDS011;16364;52.490;13.326;2024-02-15T08:43:56;10.33;;;7.47;;
29380;SDS011;16364;52.490;13.326;2024-02-15T08:46:26;9.23;;;7.57;;
29380;SDS011;16364;52.490;13.326;2024-02-15T08:48:52;10.87;;;7.50;;
29380;SDS011;16364;52.490;13.326;2024-02-15T08:51:17;13.00;;;7.80;;
29380;SDS011;16364;52.490;13.326;2024-02-15T08:53:43;8.67;;;7.37;;
29380;SDS011;16364;52.490;13.326;2024-02-15T08:56:08;11.80;;;7.57;;
29380;SDS011;16364;52.490;13.326;2024-02-15T08:58:35;10.57;;;7.63;;
29380;SDS011;16364;52.490;13.326;2024-02-15T09:01:00;9.73;;;7.60;;
29380;SDS011;16364;52.490;13.326;2024-02-15T09:03:25;16.90;;;7.60;;
29380;SDS011;16364;52.490;13.326;2024-02-15T09:05:50;10.90;;;7.37;;
29380;SDS011;16364;52.490;13.326;2024-02-15T09:08:16;9.17;;;7.40;;
29380;SDS011;16364;52.490;13.326;2024-02-15T09:10:45;7.97;;;7.17;;
29380;SDS011;16364;52.490;13.326;2024-02-15T09:13:10;9.43;;;7.53;;
29380;SDS011;16364;52.490;13.326;2024-02-15T09:15:36;9.20;;;7.50;;
29380;SDS011;16364;52.490;13.326;2024-02-15T09:18:01;6.70;;;5.63;;
29380;SDS011;16364;52.490;13.326;2024-02-15T09:20:26;7.37;;;6.23;;
29380;SDS011;16364;52.490;13.326;2024-02-15T09:22:53;9.60;;;7.60;;
29380;SDS011;16364;52.490;13.326;2024-02-15T09:25:21;9.33;;;7.33;;
29380;SDS011;16364;52.490;13.326;2024-02-15T09:27:50;9.00;;;7.97;;
29380;SDS011;16364;52.490;13.326;2024-02-15T09:30:15;9.47;;;6.70;;
29380;SDS011;16364;52.490;13.326;2024-02-15T09:32:41;11.07;;;7.70;;
29380;SDS011;16364;52.490;13.326;2024-02-15T09:35:07;9.90;;;6.20;;
29380;SDS011;16364;52.490;13.326;2024-02-15T09:37:35;7.50;;;6.37;;
29380;SDS011;16364;52.490;13.326;2024-02-15T09:40:03;7.27;;;5.67;;
29380;SDS011;16364;52.490;13.326;2024-02-15T09:42:32;8.27;;;6.53;;
29380;SDS011;16364;52.490;13.326;2024-02-15T09:44:59;7.10;;;6.37;;
29380;SDS011;16364;52.490;13.326;2024-02-15T09:47:26;6.70;;;5.57;;
29380;SDS011;16364;52.490;13.326;2024-02-15T09:49:52;8.50;;;6.90;;
29380;SDS011;16364;52.490;13.326;2024-02-15T09:52:17;7.33;;;6.63;;
29380;SDS011;16364;52.490;13.326;2024-02-15T09:54:43;7.50;;;5.87;;
29380;SDS011;16364;52.490;13.326;2024-02-15T09:57:08;7.53;;;5.97;;
29380;SDS011;16364;52.490;13.326;2024-02-15T09:59:34;7.43;;;5.63;;
29380;SDS011;16364;52.490;13.326;2024-02-15T10:02:01;6.67;;;5.90;;
29380;SDS011;16364;52.490;13.326;2024-02-15T10:04:26;6.60;;;6.00;;
29380;SDS011;16364;52.490;13.326;2024-02-15T10:06:51;6.30;;;5.40;;
29380;SDS011;16364;52.490;13.326;2024-02-15T10:09:50;8.00;;;5.53;;
29380;SDS011;16364;52.490;13.326;2024-02-15T10:12:08;6.43;;;5.37;;
29380;SDS011;16364;52.490;13.326;2024-02-15T10:14:34;5.13;;;4.63;;
29380;SDS011;16364;52.490;13.326;2024-02-15T10:17:05;6.40;;;4.67;;
29380;SDS011;16364;52.490;13.326;2024-02-15T10:19:30;7.43;;;5.00;;
29380;SDS011;16364;52.490;13.326;2024-02-15T10:22:06;6.63;;;4.77;;
29380;SDS011;16364;52.490;13.326;2024-02-15T10:24:31;5.17;;;4.50;;
29380;SDS011;16364;52.490;13.326;2024-02-15T10:27:03;7.43;;;4.27;;
29380;SDS011;16364;52.490;13.326;2024-02-15T10:29:35;4.13;;;3.73;;
29380;SDS011;16364;52.490;13.326;2024-02-15T10:32:01;4.67;;;4.10;;
29380;SDS011;16364;52.490;13.326;2024-02-15T10:34:27;5.80;;;5.27;;
29380;SDS011;16364;52.490;13.326;2024-02-15T10:36:56;5.70;;;4.50;;
29380;SDS011;16364;52.490;13.326;2024-02-15T10:39:34;7.30;;;5.20;;
29380;SDS011;16364;52.490;13.326;2024-02-15T10:42:00;5.13;;;4.63;;
29380;SDS011;16364;52.490;13.326;2024-02-15T10:44:25;5.07;;;4.40;;
29380;SDS011;16364;52.490;13.326;2024-02-15T10:46:51;5.50;;;4.33;;
29380;SDS011;16364;52.490;13.326;2024-02-15T10:49:20;6.10;;;3.87;;
29380;SDS011;16364;52.490;13.326;2024-02-15T10:51:48;4.93;;;4.53;;
29380;SDS011;16364;52.490;13.326;2024-02-15T10:54:15;4.67;;;4.27;;
29380;SDS011;16364;52.490;13.326;2024-02-15T10:56:43;4.57;;;3.97;;
29380;SDS011;16364;52.490;13.326;2024-02-15T11:01:38;5.47;;;4.20;;
29380;SDS011;16364;52.490;13.326;2024-02-15T11:04:07;4.43;;;4.03;;
29380;SDS011;16364;52.490;13.326;2024-02-15T11:06:35;4.40;;;4.10;;
29380;SDS011;16364;52.490;13.326;2024-02-15T11:09:00;3.77;;;3.47;;
29380;SDS011;16364;52.490;13.326;2024-02-15T11:11:26;3.73;;;3.43;;
29380;SDS011;16364;52.490;13.326;2024-02-15T11:14:22;3.47;;;3.17;;
29380;SDS011;16364;52.490;13.326;2024-02-15T11:16:41;3.23;;;2.93;;
29380;SDS011;16364;52.490;13.326;2024-02-15T11:19:06;3.17;;;2.83;;
29380;SDS011;16364;52.490;13.326;2024-02-15T11:24:25;4.00;;;2.60;;
29380;SDS011;16364;52.490;13.326;2024-02-15T11:26:50;4.13;;;2.30;;
29380;SDS011;16364;52.490;13.326;2024-02-15T11:31:59;3.30;;;3.00;;
29380;SDS011;16364;52.490;13.326;2024-02-15T11:34:44;5.50;;;2.80;;
29380;SDS011;16364;52.490;13.326;2024-02-15T11:37:38;2.50;;;2.30;;
29380;SDS011;16364;52.490;13.326;2024-02-15T11:39:59;3.10;;;2.77;;
29380;SDS011;16364;52.490;13.326;2024-02-15T11:42:30;5.63;;;2.30;;
29380;SDS011;16364;52.490;13.326;2024-02-15T11:45:05;3.37;;;3.13;;
29380;SDS011;16364;52.490;13.326;2024-02-15T11:47:36;2.73;;;2.27;;
29380;SDS011;16364;52.490;13.326;2024-02-15T11:50:02;2.93;;;2.63;;
29380;SDS011;16364;52.490;13.326;2024-02-15T11:52:28;2.97;;;2.63;;
29380;SDS011;16364;52.490;13.326;2024-02-15T11:54:53;3.40;;;2.90;;
29380;SDS011;16364;52.490;13.326;2024-02-15T11:57:18;4.07;;;2.80;;
29380;SDS011;16364;52.490;13.326;2024-02-15T12:00:01;3.33;;;2.90;;
29380;SDS011;16364;52.490;13.326;2024-02-15T12:03:03;3.03;;;2.60;;
29380;SDS011;16364;52.490;13.326;2024-02-15T12:05:47;3.33;;;2.90;;
29380;SDS011;16364;52.490;13.326;2024-02-15T12:08:32;3.00;;;2.73;;
29380;SDS011;16364;52.490;13.326;2024-02-15T12:11:16;2.57;;;2.37;;
29380;SDS011;16364;52.490;13.326;2024-02-15T12:14:00;3.10;;;2.10;;
29380;SDS011;16364;52.490;13.326;2024-02-15T12:16:44;5.17;;;2.20;;
29380;SDS011;16364;52.490;13.326;2024-02-15T12:19:28;4.40;;;2.73;;
29380;SDS011;16364;52.490;13.326;2024-02-15T12:21:53;3.23;;;2.43;;
29380;SDS011;16364;52.490;13.326;2024-02-15T12:24:19;4.80;;;2.20;;
29380;SDS011;16364;52.490;13.326;2024-02-15T12:26:46;1.83;;;1.70;;
29380;SDS011;16364;52.490;13.326;2024-02-15T12:29:16;5.30;;;1.83;;
29380;SDS011;16364;52.490;13.326;2024-02-15T12:31:41;2.40;;;2.20;;
29380;SDS011;16364;52.490;13.326;2024-02-15T12:34:09;3.17;;;2.20;;
29380;SDS011;16364;52.490;13.326;2024-02-15T12:36:35;2.40;;;2.03;;
29380;SDS011;16364;52.490;13.326;2024-02-15T12:39:04;2.30;;;2.10;;
29380;SDS011;16364;52.490;13.326;2024-02-15T12:41:37;2.23;;;2.03;;
29380;SDS011;16364;52.490;13.326;2024-02-15T12:44:02;2.63;;;2.43;;
29380;SDS011;16364;52.490;13.326;2024-02-15T12:46:29;1.70;;;1.60;;
29380;SDS011;16364;52.490;13.326;2024-02-15T12:49:07;2.93;;;2.10;;
29380;SDS011;16364;52.490;13.326;2024-02-15T12:51:32;1.73;;;1.63;;
29380;SDS011;16364;52.490;13.326;2024-02-15T12:54:07;2.70;;;2.00;;
29380;SDS011;16364;52.490;13.326;2024-02-15T12:56:33;2.47;;;1.70;;
29380;SDS011;16364;52.490;13.326;2024-02-15T12:58:58;2.43;;;1.90;;
29380;SDS011;16364;52.490;13.326;2024-02-15T13:01:23;3.57;;;1.90;;
29380;SDS011;16364;52.490;13.326;2024-02-15T13:03:51;2.23;;;2.03;;
29380;SDS011;16364;52.490;13.326;2024-02-15T13:06:16;2.63;;;2.00;;
29380;SDS011;16364;52.490;13.326;2024-02-15T13:08:43;2.50;;;2.30;;
29380;SDS011;16364;52.490;13.326;2024-02-15T13:11:13;3.37;;;1.90;;
29380;SDS011;16364;52.490;13.326;2024-02-15T13:13:40;2.00;;;1.70;;
29380;SDS011;16364;52.490;13.326;2024-02-15T13:16:07;3.70;;;3.40;;
29380;SDS011;16364;52.490;13.326;2024-02-15T13:18:32;2.20;;;2.00;;
29380;SDS011;16364;52.490;13.326;2024-02-15T13:20:58;2.90;;;2.63;;
29380;SDS011;16364;52.490;13.326;2024-02-15T13:23:23;3.93;;;2.50;;
29380;SDS011;16364;52.490;13.326;2024-02-15T13:25:50;2.20;;;2.00;;
29380;SDS011;16364;52.490;13.326;2024-02-15T13:28:17;2.63;;;2.13;;
29380;SDS011;16364;52.490;13.326;2024-02-15T13:30:43;2.30;;;2.10;;
29380;SDS011;16364;52.490;13.326;2024-02-15T13:33:10;4.00;;;2.10;;
29380;SDS011;16364;52.490;13.326;2024-02-15T13:35:35;2.20;;;2.00;;
29380;SDS011;16364;52.490;13.326;2024-02-15T13:38:01;2.37;;;1.93;;
29380;SDS011;16364;52.490;13.326;2024-02-15T13:40:27;2.50;;;2.10;;
29380;SDS011;16364;52.490;13.326;2024-02-15T13:42:57;4.20;;;2.00;;
29380;SDS011;16364;52.490;13.326;2024-02-15T13:45:30;2.40;;;1.90;;
29380;SDS011;16364;52.490;13.326;2024-02-15T13:47:57;1.97;;;1.87;;
29380;SDS011;16364;52.490;13.326;2024-02-15T13:50:23;2.37;;;2.17;;
29380;SDS011;16364;52.490;13.326;2024-02-15T13:52:48;3.27;;;2.17;;
29380;SDS011;16364;52.490;13.326;2024-02-15T13:55:14;2.60;;;2.40;;
29380;SDS011;16364;52.490;13.326;2024-02-15T13:57:40;2.67;;;2.10;;
29380;SDS011;16364;52.490;13.326;2024-02-15T14:00:07;1.97;;;1.77;;
29380;SDS011;16364;52.490;13.326;2024-02-15T14:02:38;2.50;;;1.90;;
29380;SDS011;16364;52.490;13.326;2024-02-15T14:05:03;2.47;;;2.27;;
29380;SDS011;16364;52.490;13.326;2024-02-15T14:07:33;2.27;;;1.80;;
29380;SDS011;16364;52.490;13.326;2024-02-15T14:09:58;2.10;;;1.90;;
29380;SDS011;16364;52.490;13.326;2024-02-15T14:12:23;2.80;;;2.07;;
29380;SDS011;16364;52.490;13.326;2024-02-15T14:14:48;2.57;;;2.37;;
29380;SDS011;16364;52.490;13.326;2024-02-15T14:17:14;1.60;;;1.50;;
29380;SDS011;16364;52.490;13.326;2024-02-15T14:19:40;2.40;;;1.70;;
29380;SDS011;16364;52.490;13.326;2024-02-15T14:22:05;2.10;;;1.90;;
29380;SDS011;16364;52.490;13.326;2024-02-15T14:24:34;1.80;;;1.70;;
29380;SDS011;16364;52.490;13.326;2024-02-15T14:26:59;2.53;;;2.30;;
29380;SDS011;16364;52.490;13.326;2024-02-15T14:29:24;3.23;;;2.73;;
29380;SDS011;16364;52.490;13.326;2024-02-15T14:31:54;2.20;;;2.00;;
29380;SDS011;16364;52.490;13.326;2024-02-15T14:34:38;2.67;;;2.47;;